sensor_id;sensor_type;location;lat;lon;timestamp;temperature;humidity
666;DHT22;315;48.738;9.126;2023-03-24T00:02:23;12.80;99.90
666;DHT22;315;48.738;9.126;2023-03-24T00:04:49;12.80;99.90
666;DHT22;315;48.738;9.126;2023-03-24T00:07:17;12.80;99.90
666;DHT22;315;48.738;9.126;2023-03-24T00:09:44;12.80;99.90
666;DHT22;315;48.738;9.126;2023-03-24T00:12:11;12.80;99.90
666;DHT22;315;48.738;9.126;2023-03-24T00:14:39;12.70;99.90
666;DHT22;315;48.738;9.126;2023-03-24T00:17:06;12.70;99.90
666;DHT22;315;48.738;9.126;2023-03-24T00:19:34;12.80;99.90
666;DHT22;315;48.738;9.126;2023-03-24T00:22:03;12.70;99.90
666;DHT22;315;48.738;9.126;2023-03-24T00:24:29;12.70;99.90
666;DHT22;315;48.738;9.126;2023-03-24T00:26:54;12.70;99.90
666;DHT22;315;48.738;9.126;2023-03-24T00:29:22;12.80;99.90
666;DHT22;315;48.738;9.126;2023-03-24T00:31:49;12.80;99.90
666;DHT22;315;48.738;9.126;2023-03-24T00:34:17;12.80;99.90
666;DHT22;315;48.738;9.126;2023-03-24T00:36:46;12.90;99.90
666;DHT22;315;48.738;9.126;2023-03-24T00:39:13;13.00;99.90
666;DHT22;315;48.738;9.126;2023-03-24T00:41:41;13.00;99.90
666;DHT22;315;48.738;9.126;2023-03-24T00:44:09;13.10;99.90
666;DHT22;315;48.738;9.126;2023-03-24T00:46:48;13.10;99.90
666;DHT22;315;48.738;9.126;2023-03-24T00:49:26;13.20;99.90
666;DHT22;315;48.738;9.126;2023-03-24T00:52:14;13.10;99.90
666;DHT22;315;48.738;9.126;2023-03-24T00:54:43;13.30;99.90
666;DHT22;315;48.738;9.126;2023-03-24T00:57:11;13.30;99.90
666;DHT22;315;48.738;9.126;2023-03-24T00:59:37;13.30;99.90
666;DHT22;315;48.738;9.126;2023-03-24T01:02:08;13.30;99.90
666;DHT22;315;48.738;9.126;2023-03-24T01:04:37;13.30;99.90
666;DHT22;315;48.738;9.126;2023-03-24T01:07:03;13.30;99.90
666;DHT22;315;48.738;9.126;2023-03-24T01:09:28;13.30;99.90
666;DHT22;315;48.738;9.126;2023-03-24T01:11:54;13.30;99.90
666;DHT22;315;48.738;9.126;2023-03-24T01:14:20;13.30;99.90
666;DHT22;315;48.738;9.126;2023-03-24T01:16:45;13.30;99.90
666;DHT22;315;48.738;9.126;2023-03-24T01:19:11;13.30;99.90
666;DHT22;315;48.738;9.126;2023-03-24T01:21:38;13.30;99.90
666;DHT22;315;48.738;9.126;2023-03-24T01:24:04;13.10;99.90
666;DHT22;315;48.738;9.126;2023-03-24T01:26:30;13.10;99.90
666;DHT22;315;48.738;9.126;2023-03-24T01:28:56;13.10;99.90
666;DHT22;315;48.738;9.126;2023-03-24T01:31:22;13.10;99.90
666;DHT22;315;48.738;9.126;2023-03-24T01:33:48;13.20;99.90
666;DHT22;315;48.738;9.126;2023-03-24T01:36:13;13.20;99.90
666;DHT22;315;48.738;9.126;2023-03-24T01:38:39;13.20;99.90
666;DHT22;315;48.738;9.126;2023-03-24T01:41:05;13.20;99.90
666;DHT22;315;48.738;9.126;2023-03-24T01:43:33;13.20;99.90
666;DHT22;315;48.738;9.126;2023-03-24T01:46:07;13.20;99.90
666;DHT22;315;48.738;9.126;2023-03-24T01:48:55;13.20;99.90
666;DHT22;315;48.738;9.126;2023-03-24T01:51:39;13.20;99.90
666;DHT22;315;48.738;9.126;2023-03-24T01:54:28;13.20;99.90
666;DHT22;315;48.738;9.126;2023-03-24T01:59:41;13.10;99.90
666;DHT22;315;48.738;9.126;2023-03-24T02:02:07;13.00;99.90
666;DHT22;315;48.738;9.126;2023-03-24T02:04:41;13.00;99.90
666;DHT22;315;48.738;9.126;2023-03-24T02:07:15;13.00;99.90
666;DHT22;315;48.738;9.126;2023-03-24T02:09:42;13.00;99.90
666;DHT22;315;48.738;9.126;2023-03-24T02:12:09;13.00;99.90
666;DHT22;315;48.738;9.126;2023-03-24T02:14:34;13.10;99.90
666;DHT22;315;48.738;9.126;2023-03-24T02:26:24;13.30;99.90
666;DHT22;315;48.738;9.126;2023-03-24T02:29:00;13.30;99.90
666;DHT22;315;48.738;9.126;2023-03-24T02:34:44;13.30;99.90
666;DHT22;315;48.738;9.126;2023-03-24T02:37:26;13.30;99.90
666;DHT22;315;48.738;9.126;2023-03-24T02:43:02;13.40;99.90
666;DHT22;315;48.738;9.126;2023-03-24T02:45:40;13.40;99.90
666;DHT22;315;48.738;9.126;2023-03-24T02:53:42;13.40;99.90
666;DHT22;315;48.738;9.126;2023-03-24T02:56:25;13.40;99.90
666;DHT22;315;48.738;9.126;2023-03-24T02:59:05;13.50;99.90
666;DHT22;315;48.738;9.126;2023-03-24T03:01:35;13.50;99.90
666;DHT22;315;48.738;9.126;2023-03-24T03:04:11;13.60;99.90
666;DHT22;315;48.738;9.126;2023-03-24T03:06:41;13.60;99.90
666;DHT22;315;48.738;9.126;2023-03-24T03:09:15;13.60;99.90
666;DHT22;315;48.738;9.126;2023-03-24T03:11:45;13.60;99.90
666;DHT22;315;48.738;9.126;2023-03-24T03:14:23;13.60;99.90
666;DHT22;315;48.738;9.126;2023-03-24T03:16:57;13.70;99.90
666;DHT22;315;48.738;9.126;2023-03-24T03:19:32;13.70;99.90
666;DHT22;315;48.738;9.126;2023-03-24T03:22:00;13.70;99.90
666;DHT22;315;48.738;9.126;2023-03-24T03:24:35;13.70;99.90
666;DHT22;315;48.738;9.126;2023-03-24T03:27:05;13.60;99.90
666;DHT22;315;48.738;9.126;2023-03-24T03:29:37;13.70;99.90
666;DHT22;315;48.738;9.126;2023-03-24T03:32:06;13.70;99.90
666;DHT22;315;48.738;9.126;2023-03-24T03:37:07;13.70;99.90
666;DHT22;315;48.738;9.126;2023-03-24T03:39:37;13.70;99.90
666;DHT22;315;48.738;9.126;2023-03-24T03:42:05;13.70;99.90
666;DHT22;315;48.738;9.126;2023-03-24T03:44:31;13.70;99.90
666;DHT22;315;48.738;9.126;2023-03-24T03:46:57;13.70;99.90
666;DHT22;315;48.738;9.126;2023-03-24T03:49:23;13.70;99.90
666;DHT22;315;48.738;9.126;2023-03-24T03:51:51;13.70;99.90
666;DHT22;315;48.738;9.126;2023-03-24T03:54:17;13.70;99.90
666;DHT22;315;48.738;9.126;2023-03-24T03:56:43;13.70;99.90
666;DHT22;315;48.738;9.126;2023-03-24T03:59:22;13.70;99.90
666;DHT22;315;48.738;9.126;2023-03-24T04:01:48;13.80;99.90
666;DHT22;315;48.738;9.126;2023-03-24T04:06:54;13.80;99.90
666;DHT22;315;48.738;9.126;2023-03-24T04:10:00;13.80;99.90
666;DHT22;315;48.738;9.126;2023-03-24T04:12:49;13.90;99.90
666;DHT22;315;48.738;9.126;2023-03-24T04:15:42;13.90;99.90
666;DHT22;315;48.738;9.126;2023-03-24T04:24:04;13.90;99.90
666;DHT22;315;48.738;9.126;2023-03-24T04:26:47;13.90;99.90
666;DHT22;315;48.738;9.126;2023-03-24T04:32:11;14.00;99.90
666;DHT22;315;48.738;9.126;2023-03-24T04:34:41;14.00;99.90
666;DHT22;315;48.738;9.126;2023-03-24T04:37:12;14.10;99.90
666;DHT22;315;48.738;9.126;2023-03-24T04:39:41;14.00;99.90
666;DHT22;315;48.738;9.126;2023-03-24T04:42:16;14.00;99.90
666;DHT22;315;48.738;9.126;2023-03-24T04:44:44;14.00;99.90
666;DHT22;315;48.738;9.126;2023-03-24T04:47:10;14.00;99.90
666;DHT22;315;48.738;9.126;2023-03-24T04:49:38;14.00;99.90
666;DHT22;315;48.738;9.126;2023-03-24T04:52:05;14.00;99.90
666;DHT22;315;48.738;9.126;2023-03-24T04:54:32;14.00;99.90
666;DHT22;315;48.738;9.126;2023-03-24T04:56:59;14.00;99.90
666;DHT22;315;48.738;9.126;2023-03-24T04:59:26;14.10;99.90
666;DHT22;315;48.738;9.126;2023-03-24T05:01:52;14.20;99.90
666;DHT22;315;48.738;9.126;2023-03-24T05:04:20;14.20;99.90
666;DHT22;315;48.738;9.126;2023-03-24T05:06:46;14.20;99.90
666;DHT22;315;48.738;9.126;2023-03-24T05:09:15;14.30;99.90
666;DHT22;315;48.738;9.126;2023-03-24T05:11:42;14.30;99.90
666;DHT22;315;48.738;9.126;2023-03-24T05:14:08;14.40;99.90
666;DHT22;315;48.738;9.126;2023-03-24T05:16:34;14.40;99.90
666;DHT22;315;48.738;9.126;2023-03-24T05:19:00;14.40;99.90
666;DHT22;315;48.738;9.126;2023-03-24T05:21:26;14.50;99.90
666;DHT22;315;48.738;9.126;2023-03-24T05:23:52;14.50;99.90
666;DHT22;315;48.738;9.126;2023-03-24T05:26:17;14.40;99.90
666;DHT22;315;48.738;9.126;2023-03-24T05:28:43;14.30;99.90
666;DHT22;315;48.738;9.126;2023-03-24T05:31:08;14.10;99.90
666;DHT22;315;48.738;9.126;2023-03-24T05:33:34;13.90;99.90
666;DHT22;315;48.738;9.126;2023-03-24T05:36:00;13.60;99.90
666;DHT22;315;48.738;9.126;2023-03-24T05:38:25;13.40;99.90
666;DHT22;315;48.738;9.126;2023-03-24T05:40:51;13.20;99.90
666;DHT22;315;48.738;9.126;2023-03-24T05:43:20;13.00;99.90
666;DHT22;315;48.738;9.126;2023-03-24T05:45:45;13.00;99.90
666;DHT22;315;48.738;9.126;2023-03-24T05:48:11;12.90;99.90
666;DHT22;315;48.738;9.126;2023-03-24T05:50:36;12.90;99.90
666;DHT22;315;48.738;9.126;2023-03-24T05:53:02;12.70;99.90
666;DHT22;315;48.738;9.126;2023-03-24T05:55:28;12.70;99.90
666;DHT22;315;48.738;9.126;2023-03-24T05:57:54;12.70;99.90
666;DHT22;315;48.738;9.126;2023-03-24T06:00:20;12.70;99.90
666;DHT22;315;48.738;9.126;2023-03-24T06:02:48;12.60;99.90
666;DHT22;315;48.738;9.126;2023-03-24T06:05:13;12.60;99.90
666;DHT22;315;48.738;9.126;2023-03-24T06:07:39;12.50;99.90
666;DHT22;315;48.738;9.126;2023-03-24T06:10:08;12.50;99.90
666;DHT22;315;48.738;9.126;2023-03-24T06:12:36;12.50;99.90
666;DHT22;315;48.738;9.126;2023-03-24T06:15:02;12.50;99.90
666;DHT22;315;48.738;9.126;2023-03-24T06:17:28;12.50;99.90
666;DHT22;315;48.738;9.126;2023-03-24T06:19:54;12.50;99.90
666;DHT22;315;48.738;9.126;2023-03-24T06:22:27;12.50;99.90
666;DHT22;315;48.738;9.126;2023-03-24T06:24:53;12.50;99.90
666;DHT22;315;48.738;9.126;2023-03-24T06:27:21;12.50;99.90
666;DHT22;315;48.738;9.126;2023-03-24T06:29:51;12.50;99.90
666;DHT22;315;48.738;9.126;2023-03-24T06:32:18;12.50;99.90
666;DHT22;315;48.738;9.126;2023-03-24T06:34:44;12.50;99.90
666;DHT22;315;48.738;9.126;2023-03-24T06:37:10;12.50;99.90
666;DHT22;315;48.738;9.126;2023-03-24T06:39:35;12.50;99.90
666;DHT22;315;48.738;9.126;2023-03-24T06:42:01;12.50;99.90
666;DHT22;315;48.738;9.126;2023-03-24T06:44:27;12.60;99.90
666;DHT22;315;48.738;9.126;2023-03-24T06:46:53;12.60;99.90
666;DHT22;315;48.738;9.126;2023-03-24T06:49:18;12.60;99.90
666;DHT22;315;48.738;9.126;2023-03-24T06:51:44;12.70;99.90
666;DHT22;315;48.738;9.126;2023-03-24T06:54:10;12.70;99.90
666;DHT22;315;48.738;9.126;2023-03-24T06:56:36;12.70;99.90
666;DHT22;315;48.738;9.126;2023-03-24T06:59:01;12.70;99.90
666;DHT22;315;48.738;9.126;2023-03-24T07:01:27;12.70;99.90
666;DHT22;315;48.738;9.126;2023-03-24T07:03:52;12.70;99.90
666;DHT22;315;48.738;9.126;2023-03-24T07:06:18;12.70;99.90
666;DHT22;315;48.738;9.126;2023-03-24T07:08:44;12.60;99.90
666;DHT22;315;48.738;9.126;2023-03-24T07:11:10;12.60;99.90
666;DHT22;315;48.738;9.126;2023-03-24T07:13:36;12.60;99.90
666;DHT22;315;48.738;9.126;2023-03-24T07:16:02;12.60;99.90
666;DHT22;315;48.738;9.126;2023-03-24T07:18:28;12.50;99.90
666;DHT22;315;48.738;9.126;2023-03-24T07:20:53;12.40;99.90
666;DHT22;315;48.738;9.126;2023-03-24T07:23:20;12.80;99.90
666;DHT22;315;48.738;9.126;2023-03-24T07:25:45;12.30;99.90
666;DHT22;315;48.738;9.126;2023-03-24T07:28:11;12.20;99.90
666;DHT22;315;48.738;9.126;2023-03-24T07:30:36;12.20;99.90
666;DHT22;315;48.738;9.126;2023-03-24T07:33:03;12.20;99.90
666;DHT22;315;48.738;9.126;2023-03-24T07:35:29;12.10;99.90
666;DHT22;315;48.738;9.126;2023-03-24T07:37:59;12.10;99.90
666;DHT22;315;48.738;9.126;2023-03-24T07:40:25;12.10;99.90
666;DHT22;315;48.738;9.126;2023-03-24T07:42:51;12.10;99.90
666;DHT22;315;48.738;9.126;2023-03-24T07:45:17;12.00;99.90
666;DHT22;315;48.738;9.126;2023-03-24T07:47:44;12.00;99.90
666;DHT22;315;48.738;9.126;2023-03-24T07:50:10;12.00;99.90
666;DHT22;315;48.738;9.126;2023-03-24T07:52:40;12.00;99.90
666;DHT22;315;48.738;9.126;2023-03-24T07:55:08;12.00;99.90
666;DHT22;315;48.738;9.126;2023-03-24T07:57:36;12.00;99.90
666;DHT22;315;48.738;9.126;2023-03-24T08:00:06;12.00;99.90
666;DHT22;315;48.738;9.126;2023-03-24T08:02:47;12.00;99.90
666;DHT22;315;48.738;9.126;2023-03-24T08:05:13;12.10;99.90
666;DHT22;315;48.738;9.126;2023-03-24T08:07:43;12.10;99.90
666;DHT22;315;48.738;9.126;2023-03-24T08:10:10;12.10;99.90
666;DHT22;315;48.738;9.126;2023-03-24T08:12:37;12.10;99.90
666;DHT22;315;48.738;9.126;2023-03-24T08:15:03;12.10;99.90
666;DHT22;315;48.738;9.126;2023-03-24T08:17:29;12.20;99.90
666;DHT22;315;48.738;9.126;2023-03-24T08:19:55;12.20;99.90
666;DHT22;315;48.738;9.126;2023-03-24T08:22:21;12.20;99.90
666;DHT22;315;48.738;9.126;2023-03-24T08:24:46;12.20;99.90
666;DHT22;315;48.738;9.126;2023-03-24T08:27:12;12.30;99.90
666;DHT22;315;48.738;9.126;2023-03-24T08:29:37;12.30;99.90
666;DHT22;315;48.738;9.126;2023-03-24T08:32:04;12.30;99.90
666;DHT22;315;48.738;9.126;2023-03-24T08:34:29;12.20;99.90
666;DHT22;315;48.738;9.126;2023-03-24T08:36:55;12.30;99.90
666;DHT22;315;48.738;9.126;2023-03-24T08:39:20;12.30;99.90
666;DHT22;315;48.738;9.126;2023-03-24T08:41:46;12.20;99.90
666;DHT22;315;48.738;9.126;2023-03-24T08:44:14;12.20;99.90
666;DHT22;315;48.738;9.126;2023-03-24T08:46:40;12.30;99.90
666;DHT22;315;48.738;9.126;2023-03-24T08:49:05;12.30;99.90
666;DHT22;315;48.738;9.126;2023-03-24T08:51:31;12.30;99.90
666;DHT22;315;48.738;9.126;2023-03-24T08:53:57;12.30;99.90
666;DHT22;315;48.738;9.126;2023-03-24T08:56:23;12.40;99.90
666;DHT22;315;48.738;9.126;2023-03-24T08:58:50;12.50;99.90
666;DHT22;315;48.738;9.126;2023-03-24T09:01:18;12.50;99.90
666;DHT22;315;48.738;9.126;2023-03-24T09:03:44;12.60;99.90
666;DHT22;315;48.738;9.126;2023-03-24T09:06:10;12.70;99.90
666;DHT22;315;48.738;9.126;2023-03-24T09:08:36;12.70;99.90
666;DHT22;315;48.738;9.126;2023-03-24T09:11:03;12.80;99.90
666;DHT22;315;48.738;9.126;2023-03-24T09:13:29;12.80;99.90
666;DHT22;315;48.738;9.126;2023-03-24T09:15:59;12.80;99.90
666;DHT22;315;48.738;9.126;2023-03-24T09:18:25;12.80;99.90
666;DHT22;315;48.738;9.126;2023-03-24T09:20:50;13.00;99.90
666;DHT22;315;48.738;9.126;2023-03-24T09:23:17;13.10;99.90
666;DHT22;315;48.738;9.126;2023-03-24T09:25:43;13.30;99.90
666;DHT22;315;48.738;9.126;2023-03-24T09:28:09;13.30;99.90
666;DHT22;315;48.738;9.126;2023-03-24T09:30:34;13.40;99.90
666;DHT22;315;48.738;9.126;2023-03-24T09:33:00;13.50;99.90
666;DHT22;315;48.738;9.126;2023-03-24T09:35:26;13.60;99.90
666;DHT22;315;48.738;9.126;2023-03-24T09:37:53;13.80;99.90
666;DHT22;315;48.738;9.126;2023-03-24T09:40:27;14.00;99.90
666;DHT22;315;48.738;9.126;2023-03-24T09:43:00;14.30;99.90
666;DHT22;315;48.738;9.126;2023-03-24T09:45:29;14.80;99.90
666;DHT22;315;48.738;9.126;2023-03-24T09:47:59;15.00;99.90
666;DHT22;315;48.738;9.126;2023-03-24T09:50:50;15.20;99.90
666;DHT22;315;48.738;9.126;2023-03-24T09:56:15;15.10;99.90
666;DHT22;315;48.738;9.126;2023-03-24T09:58:42;14.90;99.90
666;DHT22;315;48.738;9.126;2023-03-24T10:01:12;15.00;99.90
666;DHT22;315;48.738;9.126;2023-03-24T10:03:39;15.70;99.90
666;DHT22;315;48.738;9.126;2023-03-24T10:08:49;17.00;99.90
666;DHT22;315;48.738;9.126;2023-03-24T10:14:42;17.60;99.90
666;DHT22;315;48.738;9.126;2023-03-24T10:25:30;16.60;99.90
666;DHT22;315;48.738;9.126;2023-03-24T10:28:06;16.60;99.90
666;DHT22;315;48.738;9.126;2023-03-24T10:30:35;16.70;99.90
666;DHT22;315;48.738;9.126;2023-03-24T10:33:04;16.50;99.90
666;DHT22;315;48.738;9.126;2023-03-24T10:35:36;16.50;99.90
666;DHT22;315;48.738;9.126;2023-03-24T10:38:15;16.50;99.90
666;DHT22;315;48.738;9.126;2023-03-24T10:40:41;16.40;99.90
666;DHT22;315;48.738;9.126;2023-03-24T10:43:08;16.50;99.90
666;DHT22;315;48.738;9.126;2023-03-24T10:45:35;16.50;99.90
666;DHT22;315;48.738;9.126;2023-03-24T10:48:03;16.60;99.90
666;DHT22;315;48.738;9.126;2023-03-24T10:50:30;17.00;99.90
666;DHT22;315;48.738;9.126;2023-03-24T10:52:57;17.10;99.90
666;DHT22;315;48.738;9.126;2023-03-24T10:55:29;17.10;99.90
666;DHT22;315;48.738;9.126;2023-03-24T10:57:58;16.90;99.90
666;DHT22;315;48.738;9.126;2023-03-24T11:00:27;16.60;99.90
666;DHT22;315;48.738;9.126;2023-03-24T11:03:00;16.50;99.90
666;DHT22;315;48.738;9.126;2023-03-24T11:05:31;16.30;99.90
666;DHT22;315;48.738;9.126;2023-03-24T11:08:16;16.40;99.90
666;DHT22;315;48.738;9.126;2023-03-24T11:10:43;16.30;99.90
666;DHT22;315;48.738;9.126;2023-03-24T11:13:27;16.60;99.90
666;DHT22;315;48.738;9.126;2023-03-24T11:16:12;17.60;99.90
666;DHT22;315;48.738;9.126;2023-03-24T11:21:19;18.10;99.90
666;DHT22;315;48.738;9.126;2023-03-24T11:23:45;17.70;99.90
666;DHT22;315;48.738;9.126;2023-03-24T11:26:17;17.70;99.90
666;DHT22;315;48.738;9.126;2023-03-24T11:28:50;18.10;99.90
666;DHT22;315;48.738;9.126;2023-03-24T11:31:25;17.30;99.90
666;DHT22;315;48.738;9.126;2023-03-24T11:34:01;17.10;99.90
666;DHT22;315;48.738;9.126;2023-03-24T11:39:00;17.10;99.90
666;DHT22;315;48.738;9.126;2023-03-24T11:41:26;17.40;99.90
666;DHT22;315;48.738;9.126;2023-03-24T11:44:20;17.20;99.90
666;DHT22;315;48.738;9.126;2023-03-24T11:46:50;16.90;99.90
666;DHT22;315;48.738;9.126;2023-03-24T11:49:19;16.70;99.90
666;DHT22;315;48.738;9.126;2023-03-24T11:51:49;16.60;99.90
666;DHT22;315;48.738;9.126;2023-03-24T11:54:18;16.70;99.90
666;DHT22;315;48.738;9.126;2023-03-24T11:56:51;16.80;99.90
666;DHT22;315;48.738;9.126;2023-03-24T11:59:41;17.00;99.90
666;DHT22;315;48.738;9.126;2023-03-24T12:03:40;17.10;99.90
666;DHT22;315;48.738;9.126;2023-03-24T12:05:40;16.70;99.90
666;DHT22;315;48.738;9.126;2023-03-24T12:13:47;16.30;99.90
666;DHT22;315;48.738;9.126;2023-03-24T12:23:18;16.50;99.90
666;DHT22;315;48.738;9.126;2023-03-24T12:25:52;16.80;99.90
666;DHT22;315;48.738;9.126;2023-03-24T12:28:49;16.70;99.90
666;DHT22;315;48.738;9.126;2023-03-24T12:42:46;16.60;99.90
666;DHT22;315;48.738;9.126;2023-03-24T12:45:18;16.30;99.90
666;DHT22;315;48.738;9.126;2023-03-24T12:50:47;16.30;99.90
666;DHT22;315;48.738;9.126;2023-03-24T12:56:12;16.30;99.90
666;DHT22;315;48.738;9.126;2023-03-24T12:58:52;16.20;99.90
666;DHT22;315;48.738;9.126;2023-03-24T13:01:38;16.10;99.90
666;DHT22;315;48.738;9.126;2023-03-24T13:04:24;16.10;99.90
666;DHT22;315;48.738;9.126;2023-03-24T13:07:00;16.20;99.90
666;DHT22;315;48.738;9.126;2023-03-24T13:12:44;16.40;99.90
666;DHT22;315;48.738;9.126;2023-03-24T13:15:17;16.50;99.90
666;DHT22;315;48.738;9.126;2023-03-24T13:20:52;16.30;99.90
666;DHT22;315;48.738;9.126;2023-03-24T13:31:30;15.80;99.90
666;DHT22;315;48.738;9.126;2023-03-24T13:34:00;15.80;99.90
666;DHT22;315;48.738;9.126;2023-03-24T13:36:29;15.70;99.90
666;DHT22;315;48.738;9.126;2023-03-24T13:39:01;15.50;99.90
666;DHT22;315;48.738;9.126;2023-03-24T13:41:34;15.50;99.90
666;DHT22;315;48.738;9.126;2023-03-24T13:46:30;15.30;99.90
666;DHT22;315;48.738;9.126;2023-03-24T13:48:57;15.40;99.90
666;DHT22;315;48.738;9.126;2023-03-24T13:51:28;15.50;99.90
666;DHT22;315;48.738;9.126;2023-03-24T13:56:34;15.60;99.90
666;DHT22;315;48.738;9.126;2023-03-24T14:01:43;15.60;99.90
666;DHT22;315;48.738;9.126;2023-03-24T14:06:51;16.10;99.90
666;DHT22;315;48.738;9.126;2023-03-24T14:09:29;15.60;99.90
666;DHT22;315;48.738;9.126;2023-03-24T14:14:29;15.30;99.90
666;DHT22;315;48.738;9.126;2023-03-24T14:19:42;14.90;99.90
666;DHT22;315;48.738;9.126;2023-03-24T14:22:25;14.70;99.90
666;DHT22;315;48.738;9.126;2023-03-24T14:25:03;14.60;99.90
666;DHT22;315;48.738;9.126;2023-03-24T14:27:44;14.70;99.90
666;DHT22;315;48.738;9.126;2023-03-24T14:32:44;14.80;99.90
666;DHT22;315;48.738;9.126;2023-03-24T14:38:17;15.00;99.90
666;DHT22;315;48.738;9.126;2023-03-24T14:40:48;14.80;99.90
666;DHT22;315;48.738;9.126;2023-03-24T14:43:53;14.80;99.90
666;DHT22;315;48.738;9.126;2023-03-24T14:48:52;14.60;99.90
666;DHT22;315;48.738;9.126;2023-03-24T14:56:59;14.70;99.90
666;DHT22;315;48.738;9.126;2023-03-24T14:59:50;14.80;99.90
666;DHT22;315;48.738;9.126;2023-03-24T15:02:34;14.90;99.90
666;DHT22;315;48.738;9.126;2023-03-24T15:07:44;14.50;99.90
666;DHT22;315;48.738;9.126;2023-03-24T15:10:18;14.30;99.90
666;DHT22;315;48.738;9.126;2023-03-24T15:12:47;14.00;99.90
666;DHT22;315;48.738;9.126;2023-03-24T15:15:20;13.70;99.90
666;DHT22;315;48.738;9.126;2023-03-24T15:17:47;13.50;99.90
666;DHT22;315;48.738;9.126;2023-03-24T15:20:20;13.30;99.90
666;DHT22;315;48.738;9.126;2023-03-24T15:22:46;13.00;99.90
666;DHT22;315;48.738;9.126;2023-03-24T15:25:12;12.90;99.90
666;DHT22;315;48.738;9.126;2023-03-24T15:27:39;12.60;99.90
666;DHT22;315;48.738;9.126;2023-03-24T15:30:12;12.60;99.90
666;DHT22;315;48.738;9.126;2023-03-24T15:32:39;12.60;99.90
666;DHT22;315;48.738;9.126;2023-03-24T15:35:14;12.60;99.90
666;DHT22;315;48.738;9.126;2023-03-24T15:37:43;12.50;99.90
666;DHT22;315;48.738;9.126;2023-03-24T15:42:57;12.30;99.90
666;DHT22;315;48.738;9.126;2023-03-24T15:45:33;12.10;99.90
666;DHT22;315;48.738;9.126;2023-03-24T15:48:06;12.00;99.90
666;DHT22;315;48.738;9.126;2023-03-24T15:50:37;12.00;99.90
666;DHT22;315;48.738;9.126;2023-03-24T15:53:19;11.80;99.90
666;DHT22;315;48.738;9.126;2023-03-24T15:55:46;11.80;99.90
666;DHT22;315;48.738;9.126;2023-03-24T15:58:24;11.80;99.90
666;DHT22;315;48.738;9.126;2023-03-24T16:00:53;11.70;99.90
666;DHT22;315;48.738;9.126;2023-03-24T16:03:22;11.90;99.90
666;DHT22;315;48.738;9.126;2023-03-24T16:05:52;12.00;99.90
666;DHT22;315;48.738;9.126;2023-03-24T16:08:28;12.10;99.90
666;DHT22;315;48.738;9.126;2023-03-24T16:10:59;12.00;99.90
666;DHT22;315;48.738;9.126;2023-03-24T16:13:25;12.00;99.90
666;DHT22;315;48.738;9.126;2023-03-24T16:18:32;11.90;99.90
666;DHT22;315;48.738;9.126;2023-03-24T16:21:04;11.90;99.90
666;DHT22;315;48.738;9.126;2023-03-24T16:23:33;11.90;99.90
666;DHT22;315;48.738;9.126;2023-03-24T16:25:59;11.90;99.90
666;DHT22;315;48.738;9.126;2023-03-24T16:28:24;11.80;99.90
666;DHT22;315;48.738;9.126;2023-03-24T16:31:01;11.80;99.90
666;DHT22;315;48.738;9.126;2023-03-24T16:33:27;11.80;99.90
666;DHT22;315;48.738;9.126;2023-03-24T16:35:54;11.80;99.90
666;DHT22;315;48.738;9.126;2023-03-24T16:38:20;11.80;99.90
666;DHT22;315;48.738;9.126;2023-03-24T16:40:49;11.80;99.90
666;DHT22;315;48.738;9.126;2023-03-24T16:43:15;11.80;99.90
666;DHT22;315;48.738;9.126;2023-03-24T16:45:41;11.80;99.90
666;DHT22;315;48.738;9.126;2023-03-24T16:48:10;11.80;99.90
666;DHT22;315;48.738;9.126;2023-03-24T16:50:38;11.90;99.90
666;DHT22;315;48.738;9.126;2023-03-24T16:53:04;12.00;99.90
666;DHT22;315;48.738;9.126;2023-03-24T16:55:32;12.10;99.90
666;DHT22;315;48.738;9.126;2023-03-24T16:57:57;12.10;99.90
666;DHT22;315;48.738;9.126;2023-03-24T17:00:23;12.10;99.90
666;DHT22;315;48.738;9.126;2023-03-24T17:02:49;12.00;99.90
666;DHT22;315;48.738;9.126;2023-03-24T17:05:26;12.00;99.90
666;DHT22;315;48.738;9.126;2023-03-24T17:07:55;12.00;99.90
666;DHT22;315;48.738;9.126;2023-03-24T17:10:23;12.20;99.90
666;DHT22;315;48.738;9.126;2023-03-24T17:12:49;12.40;99.90
666;DHT22;315;48.738;9.126;2023-03-24T17:15:27;12.30;99.90
666;DHT22;315;48.738;9.126;2023-03-24T17:17:53;12.10;99.90
666;DHT22;315;48.738;9.126;2023-03-24T17:20:20;12.00;99.90
666;DHT22;315;48.738;9.126;2023-03-24T17:22:47;11.90;99.90
666;DHT22;315;48.738;9.126;2023-03-24T17:25:15;11.80;99.90
666;DHT22;315;48.738;9.126;2023-03-24T17:27:42;11.70;99.90
666;DHT22;315;48.738;9.126;2023-03-24T17:30:09;11.70;99.90
666;DHT22;315;48.738;9.126;2023-03-24T17:32:35;11.60;99.90
666;DHT22;315;48.738;9.126;2023-03-24T17:35:02;11.60;99.90
666;DHT22;315;48.738;9.126;2023-03-24T17:37:28;11.60;99.90
666;DHT22;315;48.738;9.126;2023-03-24T17:39:55;11.60;99.90
666;DHT22;315;48.738;9.126;2023-03-24T17:42:24;11.70;99.90
666;DHT22;315;48.738;9.126;2023-03-24T17:44:50;11.80;99.90
666;DHT22;315;48.738;9.126;2023-03-24T17:47:16;11.70;99.90
666;DHT22;315;48.738;9.126;2023-03-24T17:49:42;11.60;99.90
666;DHT22;315;48.738;9.126;2023-03-24T17:52:07;11.50;99.90
666;DHT22;315;48.738;9.126;2023-03-24T17:54:33;11.40;99.90
666;DHT22;315;48.738;9.126;2023-03-24T17:56:59;11.40;99.90
666;DHT22;315;48.738;9.126;2023-03-24T17:59:24;11.30;99.90
666;DHT22;315;48.738;9.126;2023-03-24T18:01:50;11.30;99.90
666;DHT22;315;48.738;9.126;2023-03-24T18:04:15;11.30;99.90
666;DHT22;315;48.738;9.126;2023-03-24T18:06:42;11.30;99.90
666;DHT22;315;48.738;9.126;2023-03-24T18:09:08;11.20;99.90
666;DHT22;315;48.738;9.126;2023-03-24T18:11:34;11.20;99.90
666;DHT22;315;48.738;9.126;2023-03-24T18:14:00;11.10;99.90
666;DHT22;315;48.738;9.126;2023-03-24T18:16:26;11.10;99.90
666;DHT22;315;48.738;9.126;2023-03-24T18:18:55;11.10;99.90
666;DHT22;315;48.738;9.126;2023-03-24T18:21:21;11.10;99.90
666;DHT22;315;48.738;9.126;2023-03-24T18:23:48;11.00;99.90
666;DHT22;315;48.738;9.126;2023-03-24T18:26:15;11.00;99.90
666;DHT22;315;48.738;9.126;2023-03-24T18:28:41;11.00;99.90
666;DHT22;315;48.738;9.126;2023-03-24T18:31:15;11.00;99.90
666;DHT22;315;48.738;9.126;2023-03-24T18:33:43;11.00;99.90
666;DHT22;315;48.738;9.126;2023-03-24T18:36:10;11.00;99.90
666;DHT22;315;48.738;9.126;2023-03-24T18:38:37;11.00;99.90
666;DHT22;315;48.738;9.126;2023-03-24T18:41:04;11.00;99.90
666;DHT22;315;48.738;9.126;2023-03-24T18:43:31;11.00;99.90
666;DHT22;315;48.738;9.126;2023-03-24T18:45:59;10.90;99.90
666;DHT22;315;48.738;9.126;2023-03-24T18:48:24;10.90;99.90
666;DHT22;315;48.738;9.126;2023-03-24T18:50:50;10.90;99.90
666;DHT22;315;48.738;9.126;2023-03-24T18:53:19;10.90;99.90
666;DHT22;315;48.738;9.126;2023-03-24T18:55:46;10.90;99.90
666;DHT22;315;48.738;9.126;2023-03-24T18:58:13;10.90;99.90
666;DHT22;315;48.738;9.126;2023-03-24T19:00:48;10.90;99.90
666;DHT22;315;48.738;9.126;2023-03-24T19:03:14;10.90;99.90
666;DHT22;315;48.738;9.126;2023-03-24T19:05:39;10.80;99.90
666;DHT22;315;48.738;9.126;2023-03-24T19:08:06;10.90;99.90
666;DHT22;315;48.738;9.126;2023-03-24T19:10:35;10.80;99.90
666;DHT22;315;48.738;9.126;2023-03-24T19:13:02;10.80;99.90